Time;durP1;ratioP1;P1;durP2;ratioP2;P2;SDS_P1;SDS_P2;PMS_P1;PMS_P2;Temp;Humidity;BMP_temperature;BMP_pressure;BME280_temperature;BME280_humidity;BME280_pressure;Samples;Min_cycle;Max_cycle;Signal;HPM_P1;HPM_P2
2023/12/08 00:00:36;;;;;;;22.55;13.23;;;154.30;2252.80;;;;;;5065823;28;20295;-63
2023/12/08 00:03:02;;;;;;;22.73;14.68;;;154.30;2252.80;;;;;;5061416;28;20048;-64
2023/12/08 00:05:27;;;;;;;157.30;80.68;;;154.30;2252.80;;;;;;5055353;28;20386;-61
2023/12/08 00:07:53;;;;;;;35.15;17.25;;;154.30;2252.80;;;;;;5055655;28;20037;-61
2023/12/08 00:10:19;;;;;;;17.67;10.80;;;154.30;2252.80;;;;;;5055369;28;20032;-63
2023/12/08 00:12:45;;;;;;;49.60;25.42;;;154.30;2252.80;;;;;;5055064;28;20068;-63
2023/12/08 00:15:11;;;;;;;103.60;53.67;;;154.20;2252.80;;;;;;5055728;28;20025;-60
2023/12/08 00:17:36;;;;;;;23.00;12.70;;;154.20;2252.80;;;;;;5055194;28;20080;-63
2023/12/08 00:20:03;;;;;;;38.65;21.73;;;154.10;2252.80;;;;;;5068296;28;20028;-63
2023/12/08 00:22:29;;;;;;;30.77;18.77;;;154.30;2252.80;;;;;;5071269;28;20025;-62
2023/12/08 00:24:56;;;;;;;16.10;11.98;;;154.30;2252.80;;;;;;5071334;28;20021;-61
2023/12/08 00:27:21;;;;;;;51.13;32.50;;;154.30;2252.80;;;;;;5072796;28;20060;-63
2023/12/08 00:29:48;;;;;;;40.00;27.00;;;154.30;2252.80;;;;;;5075684;28;20450;-64
2023/12/08 00:32:16;;;;;;;28.35;18.20;;;154.40;2252.80;;;;;;5056128;28;20037;-62
2023/12/08 00:34:42;;;;;;;20.27;12.45;;;154.40;2252.80;;;;;;5056010;28;20423;-62
2023/12/08 00:37:08;;;;;;;15.18;9.93;;;154.50;2252.80;;;;;;5075045;28;20132;-63
2023/12/08 00:39:34;;;;;;;20.73;13.90;;;154.40;2252.80;;;;;;5075091;28;20371;-61
2023/12/08 00:41:59;;;;;;;49.45;30.25;;;154.40;2252.80;;;;;;5074958;28;20061;-62
2023/12/08 00:44:25;;;;;;;20.98;13.88;;;154.30;2252.80;;;;;;5074953;28;20081;-61
2023/12/08 00:46:51;;;;;;;24.17;18.27;;;154.30;2252.80;;;;;;5074945;28;20033;-61
2023/12/08 00:49:17;;;;;;;44.38;25.58;;;154.20;2252.80;;;;;;5075116;28;20060;-62
2023/12/08 00:51:43;;;;;;;36.05;22.98;;;154.20;2252.80;;;;;;5075149;28;20039;-61
2023/12/08 00:57:30;;;;;;;49.67;31.30;;;154.30;2252.80;;;;;;5074617;28;20066;-61
2023/12/08 00:59:57;;;;;;;31.70;18.80;;;154.40;2252.80;;;;;;5074366;28;20111;-61
2023/12/08 01:02:23;;;;;;;34.00;19.92;;;154.50;2252.80;;;;;;5074340;28;20032;-61
2023/12/08 01:04:48;;;;;;;34.35;20.73;;;154.50;2252.80;;;;;;5074443;28;20025;-61
2023/12/08 01:07:14;;;;;;;32.42;22.55;;;179.20;2252.80;;;;;;5074068;28;20394;-61
2023/12/08 01:09:40;;;;;;;43.85;29.58;;;179.30;2252.80;;;;;;5074208;28;20020;-61
2023/12/08 01:12:06;;;;;;;41.80;25.42;;;179.20;2252.80;;;;;;5073967;28;20487;-60
2023/12/08 01:14:32;;;;;;;37.90;24.00;;;179.20;2252.80;;;;;;5074399;28;20029;-61
2023/12/08 01:16:57;;;;;;;35.67;23.75;;;179.20;2252.80;;;;;;5073885;28;20535;-61
2023/12/08 01:19:23;;;;;;;39.08;24.35;;;154.50;2252.80;;;;;;5074255;28;20134;-62
2023/12/08 01:21:49;;;;;;;34.45;20.98;;;154.50;2252.80;;;;;;5071862;28;20024;-61
2023/12/08 01:24:15;;;;;;;32.33;19.38;;;179.20;2252.80;;;;;;5070081;28;20026;-63
2023/12/08 01:26:44;;;;;;;26.00;18.00;;;179.20;2252.80;;;;;;5070099;28;20119;-62
2023/12/08 01:29:11;;;;;;;22.45;15.70;;;179.20;2252.80;;;;;;5070028;28;20100;-60
2023/12/08 01:31:37;;;;;;;23.05;15.13;;;154.50;2252.80;;;;;;5070665;28;20397;-63
2023/12/08 01:34:02;;;;;;;32.72;22.65;;;179.20;2252.80;;;;;;5070090;28;20025;-62
2023/12/08 01:36:28;;;;;;;27.42;17.65;;;154.50;2252.80;;;;;;5070075;28;20112;-63
2023/12/08 01:38:54;;;;;;;22.98;14.60;;;154.30;2252.80;;;;;;5064299;28;20475;-63
2023/12/08 01:41:20;;;;;;;22.58;17.40;;;154.30;2252.80;;;;;;5070021;28;20025;-60
2023/12/08 01:43:46;;;;;;;19.83;13.35;;;154.30;2252.80;;;;;;5069534;28;20017;-61
2023/12/08 01:46:15;;;;;;;30.67;19.80;;;154.30;2252.80;;;;;;5069837;28;20044;-61
2023/12/08 01:48:42;;;;;;;16.50;11.60;;;154.30;2252.80;;;;;;5069874;28;20013;-61
2023/12/08 01:51:11;;;;;;;18.33;11.85;;;154.30;2252.80;;;;;;5070123;28;20059;-61
2023/12/08 01:53:37;;;;;;;14.93;9.65;;;154.40;2252.80;;;;;;5069601;28;20505;-61
2023/12/08 01:56:04;;;;;;;35.33;23.38;;;154.40;2252.80;;;;;;5069877;28;20043;-60
2023/12/08 01:58:30;;;;;;;21.75;14.20;;;154.40;2252.80;;;;;;5069806;28;20469;-60
2023/12/08 02:00:57;;;;;;;16.08;11.20;;;154.40;2252.80;;;;;;5070242;28;20142;-63
2023/12/08 02:03:25;;;;;;;48.08;28.52;;;154.30;2252.80;;;;;;5069578;28;20056;-60
2023/12/08 02:05:50;;;;;;;35.13;23.92;;;154.30;2252.80;;;;;;5069459;28;20459;-60
2023/12/08 02:08:20;;;;;;;25.55;16.52;;;154.30;2252.80;;;;;;5069525;28;20031;-63
2023/12/08 02:10:47;;;;;;;18.70;10.57;;;154.30;2252.80;;;;;;5069984;28;20493;-63
2023/12/08 02:13:16;;;;;;;60.30;35.72;;;154.40;2252.80;;;;;;5069335;28;20076;-63
2023/12/08 02:15:46;;;;;;;18.33;11.05;;;154.30;2252.80;;;;;;5066094;28;20024;-61
2023/12/08 02:18:14;;;;;;;19.55;10.05;;;154.40;2252.80;;;;;;5065781;28;20060;-62
2023/12/08 02:20:41;;;;;;;12.52;7.60;;;154.20;2252.80;;;;;;5069350;28;20016;-61
2023/12/08 02:23:07;;;;;;;13.90;8.50;;;154.10;2252.80;;;;;;5069862;28;20107;-60
2023/12/08 02:25:33;;;;;;;12.25;8.30;;;153.90;2252.80;;;;;;5069344;28;20128;-63
2023/12/08 02:27:59;;;;;;;16.77;11.85;;;154.00;2252.80;;;;;;5069672;28;20029;-61
2023/12/08 02:30:25;;;;;;;14.82;9.23;;;154.10;2252.80;;;;;;5069456;28;20104;-64
2023/12/08 02:32:53;;;;;;;20.20;12.98;;;154.00;2252.80;;;;;;5069168;28;20107;-62
2023/12/08 02:35:20;;;;;;;22.15;15.60;;;154.20;2252.80;;;;;;5068770;28;20032;-61
2023/12/08 02:37:50;;;;;;;32.92;18.98;;;154.10;2252.80;;;;;;5069238;28;20496;-62
2023/12/08 02:40:16;;;;;;;17.00;12.10;;;154.00;2252.80;;;;;;5069349;28;20028;-63
2023/12/08 02:42:42;;;;;;;26.58;18.65;;;154.10;2252.80;;;;;;5069309;28;20016;-62
2023/12/08 02:45:08;;;;;;;23.63;13.98;;;154.20;2252.80;;;;;;5069514;28;20524;-62
2023/12/08 02:47:34;;;;;;;18.02;11.98;;;154.20;2252.80;;;;;;5069388;28;20046;-62
2023/12/08 02:49:59;;;;;;;32.67;22.08;;;154.30;2252.80;;;;;;5068202;28;20480;-62
2023/12/08 02:52:25;;;;;;;22.98;16.02;;;154.10;2252.80;;;;;;5068034;28;20068;-63
2023/12/08 02:54:51;;;;;;;26.00;17.83;;;154.10;2252.80;;;;;;5056400;28;20021;-61
2023/12/08 02:57:17;;;;;;;30.42;21.48;;;154.00;2252.80;;;;;;5071910;28;20021;-62
2023/12/08 02:59:42;;;;;;;37.22;23.23;;;154.00;2252.80;;;;;;5072810;28;20020;-63
2023/12/08 03:02:08;;;;;;;47.47;28.40;;;154.10;2252.80;;;;;;5073253;28;20024;-62
2023/12/08 03:04:34;;;;;;;50.28;31.50;;;154.20;2252.80;;;;;;5072817;28;20032;-61
2023/12/08 03:07:00;;;;;;;47.03;29.55;;;154.30;2252.80;;;;;;5059929;28;20115;-60
2023/12/08 03:09:26;;;;;;;46.10;29.60;;;154.30;2252.80;;;;;;5073266;28;20158;-61
2023/12/08 03:11:52;;;;;;;41.55;27.23;;;154.10;2252.80;;;;;;5071211;28;20420;-61
2023/12/08 03:14:18;;;;;;;42.33;27.02;;;154.00;2252.80;;;;;;5073037;28;20016;-61
2023/12/08 03:16:46;;;;;;;50.03;29.88;;;154.00;2252.80;;;;;;5073083;28;20039;-61
2023/12/08 03:19:12;;;;;;;43.35;28.40;;;154.00;2252.80;;;;;;5072816;28;20028;-61
2023/12/08 03:21:37;;;;;;;35.30;25.13;;;154.20;2252.80;;;;;;5073220;28;20024;-60
2023/12/08 03:24:04;;;;;;;32.10;19.98;;;154.20;2252.80;;;;;;5066304;28;20116;-60
2023/12/08 03:26:29;;;;;;;24.60;16.90;;;154.30;2252.80;;;;;;5064658;28;20045;-60
2023/12/08 03:28:55;;;;;;;26.40;18.38;;;154.10;2252.80;;;;;;5072661;28;20031;-61
2023/12/08 03:31:26;;;;;;;25.65;17.80;;;154.10;2252.80;;;;;;5072355;28;20033;-60
2023/12/08 03:33:52;;;;;;;22.80;13.80;;;154.10;2252.80;;;;;;5072436;28;20012;-64
2023/12/08 03:36:17;;;;;;;22.20;12.73;;;153.90;2252.80;;;;;;5072295;28;20078;-60
2023/12/08 03:38:43;;;;;;;19.52;11.60;;;153.70;2252.80;;;;;;5072056;28;20013;-62
2023/12/08 03:41:11;;;;;;;19.75;11.93;;;153.90;2252.80;;;;;;5072265;28;20055;-61
2023/12/08 03:43:37;;;;;;;18.17;12.45;;;153.90;2252.80;;;;;;5072745;28;20024;-61
2023/12/08 03:46:05;;;;;;;22.75;14.10;;;153.80;2252.80;;;;;;5072587;28;20036;-60
2023/12/08 03:48:31;;;;;;;28.83;17.02;;;153.80;2252.80;;;;;;5072345;28;20441;-63
2023/12/08 03:50:57;;;;;;;23.23;14.88;;;153.70;2252.80;;;;;;5072248;28;20048;-60
2023/12/08 03:53:24;;;;;;;18.27;11.93;;;153.80;2252.80;;;;;;5071918;28;20379;-60
2023/12/08 03:55:50;;;;;;;18.58;12.27;;;153.80;2252.80;;;;;;5072147;28;20534;-61
2023/12/08 03:58:15;;;;;;;25.20;15.35;;;153.70;2252.80;;;;;;5072332;28;20104;-64
2023/12/08 04:00:41;;;;;;;22.83;14.55;;;153.60;2252.80;;;;;;5066190;28;20514;-61
2023/12/08 04:03:07;;;;;;;44.05;24.35;;;153.70;2252.80;;;;;;5064582;28;20994;-60
2023/12/08 04:05:33;;;;;;;24.08;15.00;;;153.60;2252.80;;;;;;5071945;28;20028;-61
2023/12/08 04:07:59;;;;;;;24.65;15.27;;;153.70;2252.80;;;;;;5071190;28;20034;-61
2023/12/08 04:10:24;;;;;;;22.52;12.80;;;153.80;2252.80;;;;;;5072111;28;20020;-60
2023/12/08 04:12:50;;;;;;;62.47;36.65;;;153.70;2252.80;;;;;;5071215;28;20064;-60
2023/12/08 04:15:16;;;;;;;60.20;38.08;;;153.70;2252.80;;;;;;5072035;28;20489;-60
2023/12/08 04:17:41;;;;;;;42.17;33.67;;;153.60;2252.80;;;;;;5071548;28;20028;-60
2023/12/08 04:20:08;;;;;;;40.75;25.20;;;153.80;2252.80;;;;;;5071656;28;20028;-61
2023/12/08 04:22:36;;;;;;;55.25;33.33;;;153.70;2252.80;;;;;;5072033;28;20031;-61
2023/12/08 04:25:02;;;;;;;72.35;42.20;;;153.70;2252.80;;;;;;5071273;28;20029;-60
2023/12/08 04:27:28;;;;;;;34.88;21.17;;;153.80;2252.80;;;;;;5071433;28;20028;-62
2023/12/08 04:29:54;;;;;;;75.25;44.60;;;153.60;2252.80;;;;;;5071764;28;20013;-62
2023/12/08 04:32:19;;;;;;;101.10;55.90;;;153.60;2252.80;;;;;;5067862;28;20029;-61
2023/12/08 04:34:45;;;;;;;77.75;43.90;;;153.70;2252.80;;;;;;5069647;28;20028;-63
2023/12/08 04:37:11;;;;;;;66.60;37.72;;;153.70;2252.80;;;;;;5071473;28;20031;-62
2023/12/08 04:39:37;;;;;;;66.85;40.03;;;153.70;2252.80;;;;;;5071859;28;20024;-60
2023/12/08 04:42:03;;;;;;;68.72;42.22;;;153.80;2252.80;;;;;;5071057;28;20482;-62
2023/12/08 04:44:28;;;;;;;67.82;40.20;;;153.90;2252.80;;;;;;5071428;28;20024;-62
2023/12/08 04:46:54;;;;;;;67.60;38.90;;;153.90;2252.80;;;;;;5071152;28;20370;-63
2023/12/08 04:49:20;;;;;;;73.10;39.10;;;154.00;2252.80;;;;;;5070987;28;20063;-61
2023/12/08 04:51:46;;;;;;;77.30;45.97;;;153.80;2252.80;;;;;;5057933;28;20463;-61
2023/12/08 04:54:11;;;;;;;59.92;36.63;;;153.80;2252.80;;;;;;5071061;28;20023;-60
2023/12/08 04:56:37;;;;;;;69.50;47.15;;;153.70;2252.80;;;;;;5070810;28;20425;-61
2023/12/08 04:59:03;;;;;;;74.55;49.63;;;153.70;2252.80;;;;;;5071147;28;20459;-62
2023/12/08 05:01:29;;;;;;;63.80;40.28;;;153.80;2252.80;;;;;;5070684;28;20066;-61
2023/12/08 05:03:54;;;;;;;50.55;34.22;;;153.80;2252.80;;;;;;5070821;28;20024;-60
2023/12/08 05:06:22;;;;;;;37.58;25.30;;;153.70;2252.80;;;;;;5070359;28;20037;-61
2023/12/08 05:08:48;;;;;;;42.25;27.58;;;153.70;2252.80;;;;;;5069946;28;20044;-61
2023/12/08 05:11:13;;;;;;;55.75;31.48;;;153.90;2252.80;;;;;;5060399;28;20020;-63
2023/12/08 05:13:39;;;;;;;50.28;30.60;;;128.90;2252.80;;;;;;5070353;28;20052;-61
2023/12/08 05:16:05;;;;;;;49.42;30.92;;;153.70;2252.80;;;;;;5070699;28;20016;-61
2023/12/08 05:18:31;;;;;;;44.97;28.33;;;153.60;2252.80;;;;;;5070542;28;20097;-63
2023/12/08 05:20:56;;;;;;;47.72;30.15;;;153.60;2252.80;;;;;;5070056;28;20064;-60
2023/12/08 05:23:22;;;;;;;45.53;28.17;;;128.90;2252.80;;;;;;5070030;28;20141;-61
2023/12/08 05:25:48;;;;;;;38.83;25.08;;;128.80;2252.80;;;;;;5070146;28;20021;-62
2023/12/08 05:28:14;;;;;;;66.20;39.92;;;128.70;2252.80;;;;;;5070466;28;20155;-63
2023/12/08 05:30:39;;;;;;;53.95;33.53;;;128.70;2252.80;;;;;;5070503;28;20040;-61
2023/12/08 05:33:05;;;;;;;53.67;35.67;;;128.80;2252.80;;;;;;5070422;28;20063;-60
2023/12/08 05:35:31;;;;;;;56.38;35.15;;;128.90;2252.80;;;;;;5069884;28;20017;-69
2023/12/08 05:37:57;;;;;;;64.35;36.22;;;128.90;2252.80;;;;;;5060340;28;20029;-72
2023/12/08 05:40:23;;;;;;;62.05;37.42;;;153.70;2252.80;;;;;;5064715;28;20052;-72
2023/12/08 05:42:49;;;;;;;46.17;31.63;;;153.60;2252.80;;;;;;5064508;28;20028;-70
2023/12/08 05:45:15;;;;;;;60.17;39.75;;;128.90;2252.80;;;;;;5069699;28;20020;-71
2023/12/08 05:47:43;;;;;;;77.68;45.80;;;128.90;2252.80;;;;;;5069118;28;20044;-70
2023/12/08 05:50:09;;;;;;;76.25;43.33;;;153.60;2252.80;;;;;;5069643;28;20520;-71
2023/12/08 05:52:34;;;;;;;118.63;68.10;;;153.70;2252.80;;;;;;5069895;28;20020;-71
2023/12/08 05:55:00;;;;;;;144.27;88.20;;;153.70;2252.80;;;;;;5069641;28;20069;-71
2023/12/08 05:57:27;;;;;;;134.00;83.30;;;153.70;2252.80;;;;;;5070148;28;20028;-71
2023/12/08 05:59:52;;;;;;;95.07;60.30;;;153.70;2252.80;;;;;;5069599;28;20024;-70
2023/12/08 06:02:18;;;;;;;107.85;64.97;;;153.70;2252.80;;;;;;5069282;28;20032;-71
2023/12/08 06:04:44;;;;;;;90.82;55.10;;;153.80;2252.80;;;;;;5069907;28;20146;-71
2023/12/08 06:07:10;;;;;;;85.07;52.08;;;153.80;2252.80;;;;;;5069891;28;20069;-72
2023/12/08 06:09:36;;;;;;;68.00;40.88;;;153.70;2252.80;;;;;;5070077;28;20035;-72
2023/12/08 06:12:02;;;;;;;61.28;40.15;;;153.80;2252.80;;;;;;5068579;28;20049;-72
2023/12/08 06:14:28;;;;;;;87.95;53.65;;;153.80;2252.80;;;;;;5056454;28;20028;-72
2023/12/08 06:16:54;;;;;;;67.55;43.50;;;153.80;2252.80;;;;;;5069279;28;20020;-71
2023/12/08 06:19:20;;;;;;;85.47;50.20;;;153.80;2252.80;;;;;;5069413;28;20025;-72
2023/12/08 06:21:45;;;;;;;96.30;56.90;;;153.70;2252.80;;;;;;5069585;28;20029;-71
2023/12/08 06:24:11;;;;;;;87.82;55.15;;;153.70;2252.80;;;;;;5069320;28;20074;-71
2023/12/08 06:26:40;;;;;;;61.50;40.05;;;153.70;2252.80;;;;;;5069429;28;20386;-63
2023/12/08 06:29:08;;;;;;;66.30;42.65;;;153.70;2252.80;;;;;;5069406;28;20405;-68
2023/12/08 06:31:34;;;;;;;143.18;89.78;;;153.70;2252.80;;;;;;5068209;28;20169;-69
2023/12/08 06:34:00;;;;;;;158.30;104.72;;;128.90;2252.80;;;;;;5061435;28;20421;-68
2023/12/08 06:36:26;;;;;;;109.63;65.97;;;153.60;2252.80;;;;;;5069131;28;20085;-68
2023/12/08 06:38:52;;;;;;;110.55;65.63;;;128.90;2252.80;;;;;;5068882;28;20025;-68
2023/12/08 06:41:18;;;;;;;77.40;42.75;;;153.60;2252.80;;;;;;5069125;28;20081;-67
2023/12/08 06:43:44;;;;;;;111.20;66.32;;;128.60;2252.80;;;;;;5069185;28;20052;-68
2023/12/08 06:46:10;;;;;;;127.70;72.63;;;128.60;2252.80;;;;;;5065914;28;20037;-67
2023/12/08 06:48:36;;;;;;;125.97;75.13;;;128.60;2252.80;;;;;;5065757;28;20017;-68
2023/12/08 06:51:03;;;;;;;119.22;73.15;;;128.80;2252.80;;;;;;5069081;28;20024;-68
2023/12/08 06:53:29;;;;;;;92.35;63.75;;;128.90;2252.80;;;;;;5068935;28;20478;-68
2023/12/08 06:55:55;;;;;;;83.13;54.83;;;128.60;2252.80;;;;;;5068166;28;20067;-70
2023/12/08 06:58:20;;;;;;;96.97;62.10;;;128.50;2252.80;;;;;;5060512;28;20025;-68
2023/12/08 07:00:46;;;;;;;98.60;62.08;;;128.70;2252.80;;;;;;5067508;28;20036;-67
2023/12/08 07:03:12;;;;;;;57.35;35.83;;;128.80;2252.80;;;;;;5067595;28;20036;-68
2023/12/08 07:05:37;;;;;;;73.85;46.33;;;128.80;2252.80;;;;;;5069102;28;20041;-67
2023/12/08 07:08:03;;;;;;;80.97;52.65;;;128.80;2252.80;;;;;;5063803;28;20067;-70
2023/12/08 07:10:29;;;;;;;79.80;45.85;;;153.60;2252.80;;;;;;5068651;28;20474;-68
2023/12/08 07:12:55;;;;;;;172.23;121.65;;;128.90;2252.80;;;;;;5068822;28;20403;-70
2023/12/08 07:15:21;;;;;;;93.47;55.40;;;153.60;2252.80;;;;;;5068669;28;20029;-70
2023/12/08 07:17:46;;;;;;;76.65;47.50;;;153.60;2252.80;;;;;;5069334;28;20027;-68
2023/12/08 07:20:12;;;;;;;53.97;32.88;;;128.90;2252.80;;;;;;5064354;28;20016;-68
2023/12/08 07:22:38;;;;;;;55.28;38.10;;;128.90;2252.80;;;;;;5067169;28;20024;-68
2023/12/08 07:25:04;;;;;;;77.38;47.90;;;153.60;2252.80;;;;;;5062698;28;20032;-69
2023/12/08 07:27:32;;;;;;;87.97;57.35;;;153.70;2252.80;;;;;;5066818;28;20032;-69
2023/12/08 07:29:57;;;;;;;79.82;49.33;;;153.80;2252.80;;;;;;5068861;28;20035;-67
2023/12/08 07:32:24;;;;;;;65.55;43.63;;;153.90;2252.80;;;;;;5068428;28;20028;-70
2023/12/08 07:34:50;;;;;;;67.10;42.65;;;154.10;2252.80;;;;;;5068406;28;20060;-68
2023/12/08 07:37:16;;;;;;;69.40;42.25;;;154.30;2252.80;;;;;;5068597;28;20093;-68
2023/12/08 07:39:42;;;;;;;58.08;38.00;;;154.10;2252.80;;;;;;5068709;28;20035;-70
2023/12/08 07:42:08;;;;;;;59.10;33.67;;;154.10;2252.80;;;;;;5061238;28;20136;-68
2023/12/08 07:44:35;;;;;;;66.80;41.75;;;154.20;2252.80;;;;;;5066437;28;20035;-68
2023/12/08 07:47:01;;;;;;;79.50;52.35;;;153.90;2252.80;;;;;;5069720;28;20509;-67
2023/12/08 07:49:27;;;;;;;89.20;57.25;;;154.00;2252.80;;;;;;5072054;28;20028;-68
2023/12/08 07:51:53;;;;;;;79.85;51.10;;;153.80;2252.80;;;;;;5063776;28;20020;-68
2023/12/08 07:54:19;;;;;;;53.63;36.97;;;153.70;2252.80;;;;;;5071620;28;20107;-67
2023/12/08 07:56:45;;;;;;;45.13;30.27;;;153.60;2252.80;;;;;;5068813;28;20032;-68
2023/12/08 07:59:10;;;;;;;45.08;30.08;;;153.60;2252.80;;;;;;5063119;28;20016;-70
2023/12/08 08:01:36;;;;;;;51.25;34.28;;;153.60;2252.80;;;;;;5071709;28;20029;-68
2023/12/08 08:04:02;;;;;;;67.20;46.13;;;153.90;2252.80;;;;;;5061252;28;20025;-69
2023/12/08 08:06:28;;;;;;;56.25;34.63;;;154.10;2252.80;;;;;;5065057;28;20032;-68
2023/12/08 08:08:54;;;;;;;43.75;27.05;;;153.80;2252.80;;;;;;5065174;28;20041;-68
2023/12/08 08:11:20;;;;;;;45.28;28.35;;;153.70;2252.80;;;;;;5069382;28;20386;-68
2023/12/08 08:13:46;;;;;;;57.33;36.30;;;153.90;2252.80;;;;;;5064632;28;20049;-68
2023/12/08 08:16:12;;;;;;;46.05;28.58;;;153.70;2252.80;;;;;;5071632;28;20031;-70
2023/12/08 08:18:38;;;;;;;56.38;36.47;;;153.90;2252.80;;;;;;5071873;28;20017;-68
2023/12/08 08:21:05;;;;;;;44.60;28.42;;;154.00;2252.80;;;;;;5071529;28;20386;-68
2023/12/08 08:23:31;;;;;;;48.40;31.60;;;153.90;2252.80;;;;;;5061521;28;20027;-67
2023/12/08 08:25:56;;;;;;;40.67;25.42;;;153.90;2252.80;;;;;;5067798;28;20032;-68
2023/12/08 08:28:22;;;;;;;52.35;33.90;;;154.00;2252.80;;;;;;5064993;28;20458;-70
2023/12/08 08:30:48;;;;;;;54.50;35.00;;;154.10;2252.80;;;;;;5061753;28;20017;-68
2023/12/08 08:33:14;;;;;;;58.47;38.75;;;153.70;2252.80;;;;;;5071460;28;20040;-69
2023/12/08 08:35:40;;;;;;;59.88;36.25;;;153.70;2252.80;;;;;;5069768;28;20025;-68
2023/12/08 08:38:06;;;;;;;70.03;41.65;;;153.80;2252.80;;;;;;5070730;28;20032;-69
2023/12/08 08:40:32;;;;;;;55.88;35.92;;;153.80;2252.80;;;;;;5071125;28;20074;-68
2023/12/08 08:42:58;;;;;;;56.58;35.97;;;153.90;2252.80;;;;;;5071236;28;20116;-68
2023/12/08 08:45:24;;;;;;;68.80;42.67;;;153.90;2252.80;;;;;;5071321;28;20028;-70
2023/12/08 08:47:49;;;;;;;175.48;91.93;;;153.80;2252.80;;;;;;5070919;28;20110;-69
2023/12/08 08:50:15;;;;;;;236.73;119.70;;;153.60;2252.80;;;;;;5063421;28;20043;-69
2023/12/08 08:52:41;;;;;;;248.10;125.63;;;128.80;2252.80;;;;;;5060929;28;20363;-68
2023/12/08 08:55:08;;;;;;;132.52;70.82;;;128.90;2252.80;;;;;;5070016;28;20024;-67
2023/12/08 08:57:33;;;;;;;131.98;69.43;;;128.90;2252.80;;;;;;5058888;28;20385;-67
2023/12/08 08:59:59;;;;;;;84.10;52.35;;;153.90;2252.80;;;;;;5064794;28;20053;-67
2023/12/08 09:02:25;;;;;;;86.88;48.10;;;153.80;2252.80;;;;;;5064779;28;20033;-67
2023/12/08 09:04:51;;;;;;;73.85;46.58;;;154.00;2252.80;;;;;;5056622;28;20113;-67
2023/12/08 09:07:17;;;;;;;108.25;56.78;;;154.20;2252.80;;;;;;5063514;28;20072;-67
2023/12/08 09:09:43;;;;;;;110.00;55.95;;;154.00;2252.80;;;;;;5061863;28;20475;-69
2023/12/08 09:12:09;;;;;;;121.82;54.47;;;154.20;2252.80;;;;;;5061810;28;20064;-67
2023/12/08 09:14:36;;;;;;;164.38;74.03;;;154.00;2252.80;;;;;;5057629;28;20040;-67
2023/12/08 09:17:05;;;;;;;78.55;40.05;;;154.20;2252.80;;;;;;5065654;28;20115;-66
2023/12/08 09:19:31;;;;;;;77.80;35.95;;;154.00;2252.80;;;;;;5064138;28;20059;-69
2023/12/08 09:21:57;;;;;;;58.10;34.33;;;154.00;2252.80;;;;;;5058276;28;20645;-67
2023/12/08 09:24:25;;;;;;;98.50;61.03;;;153.90;2252.80;;;;;;5060214;28;20035;-67
2023/12/08 09:26:50;;;;;;;122.53;71.03;;;154.10;2252.80;;;;;;5064658;28;20509;-67
2023/12/08 09:29:16;;;;;;;56.38;32.95;;;154.20;2252.80;;;;;;5059913;28;20028;-66
2023/12/08 09:31:42;;;;;;;41.17;23.33;;;153.80;2252.80;;;;;;5059622;28;20041;-68
2023/12/08 09:34:07;;;;;;;36.92;22.38;;;153.70;2252.80;;;;;;5066754;28;20031;-69
2023/12/08 09:36:33;;;;;;;40.05;24.42;;;153.80;2252.80;;;;;;5064276;28;20128;-67
2023/12/08 09:38:59;;;;;;;57.60;32.50;;;154.10;2252.80;;;;;;5066959;28;20021;-69
2023/12/08 09:41:27;;;;;;;86.72;47.63;;;154.00;2252.80;;;;;;5061009;28;20037;-67
2023/12/08 09:44:06;;;;;;;55.00;31.33;;;153.90;2252.80;;;;;;5060730;28;20017;-66
2023/12/08 09:46:34;;;;;;;61.70;39.65;;;153.90;2252.80;;;;;;5058813;28;20498;-67
2023/12/08 09:49:03;;;;;;;52.38;36.05;;;154.10;2252.80;;;;;;5066305;28;20467;-67
2023/12/08 09:51:29;;;;;;;33.83;23.58;;;154.20;2252.80;;;;;;5062130;28;20031;-67
2023/12/08 09:53:57;;;;;;;58.10;38.65;;;154.40;2252.80;;;;;;5063411;28;20032;-67
2023/12/08 09:56:25;;;;;;;38.75;27.63;;;179.20;2252.80;;;;;;5059437;28;20078;-66
2023/12/08 09:58:51;;;;;;;43.25;27.85;;;154.50;2252.80;;;;;;5057560;28;20029;-66
2023/12/08 10:01:17;;;;;;;52.75;34.65;;;179.30;2252.80;;;;;;5061308;28;20038;-68
2023/12/08 10:03:44;;;;;;;39.13;26.83;;;154.40;2252.80;;;;;;5058780;28;20115;-66
2023/12/08 10:06:10;;;;;;;47.55;30.13;;;154.20;2252.80;;;;;;5065218;28;20382;-68
2023/12/08 10:08:37;;;;;;;48.25;30.38;;;154.20;2252.80;;;;;;5063588;28;20029;-67
2023/12/08 10:11:05;;;;;;;132.40;78.88;;;179.20;2252.80;;;;;;5065876;28;20542;-67
2023/12/08 10:13:32;;;;;;;60.88;37.55;;;179.50;2252.80;;;;;;5068616;28;20045;-68
2023/12/08 10:15:58;;;;;;;53.33;37.75;;;179.90;2252.80;;;;;;5060054;28;20486;-68
2023/12/08 10:18:25;;;;;;;59.00;32.70;;;179.90;2252.80;;;;;;5069553;28;20027;-67
2023/12/08 10:21:11;;;;;;;63.97;39.30;;;180.00;2252.80;;;;;;5065223;28;20048;-67
2023/12/08 10:23:37;;;;;;;37.05;25.58;;;179.90;2252.80;;;;;;5055463;28;20218;-67
2023/12/08 10:26:04;;;;;;;42.88;21.67;;;179.40;2252.80;;;;;;5069103;28;20060;-67
2023/12/08 10:28:33;;;;;;;36.35;23.55;;;179.80;2252.80;;;;;;5069493;28;20047;-68
2023/12/08 10:30:59;;;;;;;38.80;25.00;;;179.80;2252.80;;;;;;5069033;28;20017;-68
2023/12/08 10:33:25;;;;;;;48.13;30.95;;;180.00;2252.80;;;;;;5063658;28;20167;-69
2023/12/08 10:35:51;;;;;;;40.33;26.20;;;179.70;2252.80;;;;;;5069097;28;20021;-67
2023/12/08 10:38:21;;;;;;;53.45;38.15;;;179.40;2252.80;;;;;;5069722;28;20455;-68
2023/12/08 10:40:48;;;;;;;36.83;23.80;;;179.80;2252.80;;;;;;5069345;28;20027;-69
2023/12/08 10:43:22;;;;;;;33.33;23.73;;;179.40;2252.80;;;;;;5069216;28;20056;-68
2023/12/08 10:45:54;;;;;;;41.63;25.85;;;179.20;2252.80;;;;;;5061718;28;20090;-66
2023/12/08 10:48:22;;;;;;;58.38;33.10;;;154.50;2252.80;;;;;;5064597;28;20036;-66
2023/12/08 10:50:50;;;;;;;40.80;25.90;;;154.50;2252.80;;;;;;5069037;28;20025;-67
2023/12/08 10:53:18;;;;;;;53.33;31.10;;;154.50;2252.80;;;;;;5069177;28;20036;-67
2023/12/08 10:56:04;;;;;;;54.88;32.15;;;154.50;2252.80;;;;;;5068938;28;20116;-67
2023/12/08 10:58:34;;;;;;;61.85;35.80;;;154.30;2252.80;;;;;;5068489;28;20043;-66
2023/12/08 11:01:02;;;;;;;53.95;33.03;;;154.20;2252.80;;;;;;5069037;28;20048;-69
2023/12/08 11:03:32;;;;;;;48.00;34.00;;;154.30;2252.80;;;;;;5069237;28;20104;-67
2023/12/08 11:06:22;;;;;;;50.88;32.38;;;154.50;2252.80;;;;;;5062647;28;20036;-67
2023/12/08 11:08:54;;;;;;;61.03;34.10;;;154.50;2252.80;;;;;;5060567;28;20040;-66
2023/12/08 11:11:21;;;;;;;72.97;40.60;;;179.30;2252.80;;;;;;5068586;28;20491;-66
2023/12/08 11:13:50;;;;;;;54.65;31.67;;;154.50;2252.80;;;;;;5069019;28;20752;-66
2023/12/08 11:16:22;;;;;;;56.72;37.85;;;179.40;2252.80;;;;;;5069270;28;20364;-67
2023/12/08 11:18:49;;;;;;;86.65;53.88;;;179.20;2252.80;;;;;;5072021;28;20501;-67
2023/12/08 11:21:16;;;;;;;58.60;38.00;;;154.50;2252.80;;;;;;5072650;28;20111;-66
2023/12/08 11:23:42;;;;;;;58.97;35.83;;;154.50;2252.80;;;;;;5072721;28;20104;-67
2023/12/08 11:26:37;;;;;;;62.25;41.47;;;154.50;2252.80;;;;;;5059771;28;20429;-67
2023/12/08 11:29:19;;;;;;;63.25;39.78;;;154.40;2252.80;;;;;;5071627;28;20020;-66
2023/12/08 11:32:14;;;;;;;69.55;46.50;;;154.40;2252.80;;;;;;5071744;28;20530;-64
2023/12/08 11:34:42;;;;;;;47.60;30.35;;;154.20;2252.80;;;;;;5071922;28;20475;-67
2023/12/08 11:37:08;;;;;;;147.10;90.60;;;154.10;2252.80;;;;;;5071809;28;20023;-67
2023/12/08 11:39:34;;;;;;;58.97;36.42;;;154.20;2252.80;;;;;;5072515;28;20028;-66
2023/12/08 11:42:07;;;;;;;53.67;33.50;;;154.50;2252.80;;;;;;5065291;28;20433;-67
2023/12/08 11:44:33;;;;;;;49.17;29.27;;;154.30;2252.80;;;;;;5071603;28;20553;-66
2023/12/08 11:47:02;;;;;;;75.20;46.83;;;154.10;2252.80;;;;;;5071529;28;20036;-68
2023/12/08 11:49:29;;;;;;;68.57;43.15;;;154.00;2252.80;;;;;;5071775;28;20415;-66
2023/12/08 11:52:13;;;;;;;107.40;57.85;;;154.30;2252.80;;;;;;5071784;28;20027;-65
2023/12/08 11:55:20;;;;;;;82.47;47.38;;;154.10;2252.80;;;;;;5071785;28;20051;-66
2023/12/08 11:58:03;;;;;;;95.55;56.65;;;154.10;2252.80;;;;;;5071950;28;20048;-69
2023/12/08 12:00:32;;;;;;;79.75;48.63;;;154.20;2252.80;;;;;;5060468;28;20023;-66